Time;durP1;ratioP1;P1;durP2;ratioP2;P2;SDS_P1;SDS_P2;PMS_P1;PMS_P2;Temp;Humidity;BMP_temperature;BMP_pressure;BME280_temperature;BME280_humidity;BME280_pressure;Samples;Min_cycle;Max_cycle;Signal;HPM_P1;HPM_P2
2022/09/29 00:00:56;;;;;;;14.02;10.40;;;6.40;99.90;;;;;;2056520;28;20027;-70
2022/09/29 00:01:56;;;;;;;13.98;9.85;;;6.40;99.90;;;;;;2040781;29;20028;-71
2022/09/29 00:02:57;;;;;;;13.82;9.68;;;6.40;99.90;;;;;;2040940;29;20395;-71
2022/09/29 00:04:00;;;;;;;15.32;10.05;;;6.40;99.90;;;;;;2040800;29;20030;-71
2022/09/29 00:05:01;;;;;;;13.70;9.43;;;6.40;99.90;;;;;;2041184;29;20122;-71
2022/09/29 00:06:01;;;;;;;13.02;9.30;;;6.40;99.90;;;;;;2049282;28;20106;-71
2022/09/29 00:07:02;;;;;;;12.30;8.85;;;6.40;99.90;;;;;;2040507;29;20044;-70
2022/09/29 00:08:03;;;;;;;13.40;9.00;;;6.40;99.90;;;;;;2040680;29;20059;-71
2022/09/29 00:09:04;;;;;;;11.73;8.63;;;6.40;99.90;;;;;;2060816;28;20160;-71
2022/09/29 00:10:05;;;;;;;10.85;8.88;;;6.40;99.90;;;;;;2064476;28;20022;-71
2022/09/29 00:11:14;;;;;;;10.60;8.10;;;6.30;99.90;;;;;;2056983;28;20093;-70
2022/09/29 00:12:15;;;;;;;13.33;8.97;;;6.30;99.90;;;;;;2057180;28;20431;-70
2022/09/29 00:13:17;;;;;;;11.32;8.90;;;6.30;99.90;;;;;;2057201;28;20286;-70
2022/09/29 00:14:17;;;;;;;10.15;8.32;;;6.30;99.90;;;;;;2056854;28;20548;-70
2022/09/29 00:15:18;;;;;;;11.73;8.38;;;6.30;99.90;;;;;;2048562;29;20027;-71
2022/09/29 00:16:19;;;;;;;11.95;8.40;;;6.30;99.90;;;;;;2048452;29;20176;-71
2022/09/29 00:17:19;;;;;;;10.88;8.50;;;6.30;99.90;;;;;;2048528;29;20094;-70
2022/09/29 00:18:20;;;;;;;10.75;8.10;;;6.30;99.90;;;;;;2048560;28;20549;-70
2022/09/29 00:19:21;;;;;;;9.75;7.85;;;6.30;99.90;;;;;;2048261;29;20090;-70
2022/09/29 00:20:21;;;;;;;11.88;8.30;;;6.30;99.90;;;;;;2040499;29;20034;-71
2022/09/29 00:21:22;;;;;;;10.77;8.63;;;6.30;99.90;;;;;;2040421;29;20589;-70
2022/09/29 00:22:23;;;;;;;11.38;8.75;;;6.30;99.90;;;;;;2048443;28;20110;-69
2022/09/29 00:23:24;;;;;;;14.10;8.55;;;6.30;99.90;;;;;;2056455;28;20027;-69
2022/09/29 00:24:25;;;;;;;13.88;8.85;;;6.30;99.90;;;;;;2040795;29;20067;-69
2022/09/29 00:25:26;;;;;;;12.52;9.07;;;6.30;99.90;;;;;;2032893;29;20244;-71
2022/09/29 00:26:27;;;;;;;14.23;9.35;;;6.30;99.90;;;;;;2040444;29;20122;-70
2022/09/29 00:27:27;;;;;;;13.07;8.55;;;6.30;99.90;;;;;;2048892;29;20086;-69
2022/09/29 00:28:29;;;;;;;12.73;8.43;;;6.30;99.90;;;;;;2040284;29;20027;-69
2022/09/29 00:29:30;;;;;;;12.07;8.32;;;6.20;99.90;;;;;;2040289;29;20031;-68
2022/09/29 00:30:30;;;;;;;12.68;8.10;;;6.30;99.90;;;;;;2049060;29;20027;-70
2022/09/29 00:31:32;;;;;;;11.25;8.32;;;6.20;99.90;;;;;;2040330;29;20035;-70
2022/09/29 00:32:33;;;;;;;11.75;8.55;;;6.20;99.90;;;;;;2032910;29;20032;-70
2022/09/29 00:33:35;;;;;;;11.77;9.05;;;6.20;99.90;;;;;;2037432;29;20039;-70
2022/09/29 00:34:36;;;;;;;12.65;8.90;;;6.20;99.90;;;;;;2048726;28;20095;-70
2022/09/29 00:35:37;;;;;;;12.88;9.02;;;6.20;99.90;;;;;;2056655;28;20126;-70
2022/09/29 00:36:37;;;;;;;11.93;8.63;;;6.20;99.90;;;;;;2057323;28;20141;-70
2022/09/29 00:37:39;;;;;;;11.75;8.85;;;6.20;99.90;;;;;;2066121;28;20026;-70
2022/09/29 00:38:40;;;;;;;12.82;9.40;;;6.20;99.90;;;;;;2057609;28;20035;-70
2022/09/29 00:39:41;;;;;;;10.93;8.30;;;6.30;99.90;;;;;;2057181;28;20099;-70
2022/09/29 00:40:42;;;;;;;12.48;8.63;;;6.30;99.90;;;;;;2056250;28;20027;-70
2022/09/29 00:41:42;;;;;;;10.68;8.27;;;6.30;99.90;;;;;;2065006;28;20379;-70
2022/09/29 00:42:43;;;;;;;12.07;8.02;;;6.30;99.90;;;;;;2065262;28;20061;-70
2022/09/29 00:44:12;;;;;;;11.38;7.90;;;6.20;99.90;;;;;;2065166;28;20034;-70
2022/09/29 00:45:23;;;;;;;9.50;7.68;;;6.20;99.90;;;;;;2065212;28;20106;-70
2022/09/29 00:46:37;;;;;;;10.35;7.60;;;6.20;99.90;;;;;;2048507;29;20118;-69
2022/09/29 00:47:42;;;;;;;9.65;7.75;;;6.20;99.90;;;;;;2052276;28;20035;-69
2022/09/29 00:48:43;;;;;;;11.20;8.07;;;6.20;99.90;;;;;;2064891;28;20109;-69
2022/09/29 00:49:58;;;;;;;10.30;7.75;;;6.20;99.90;;;;;;2056420;28;20039;-70
2022/09/29 00:50:59;;;;;;;8.60;7.68;;;6.20;99.90;;;;;;2058821;28;20031;-69
2022/09/29 00:52:06;;;;;;;8.63;7.55;;;6.10;99.90;;;;;;2065299;28;20053;-69
2022/09/29 00:53:11;;;;;;;11.23;7.82;;;6.10;99.90;;;;;;2056224;28;20469;-70
2022/09/29 00:54:12;;;;;;;10.85;7.60;;;6.10;99.90;;;;;;2048991;28;20648;-70
2022/09/29 00:55:14;;;;;;;10.15;7.95;;;6.10;99.90;;;;;;2056679;28;20023;-70
2022/09/29 00:56:18;;;;;;;10.00;7.47;;;6.10;99.90;;;;;;2064982;28;20030;-70
2022/09/29 00:57:23;;;;;;;9.45;7.50;;;6.10;99.90;;;;;;2065278;28;20117;-70
2022/09/29 00:58:46;;;;;;;8.82;7.05;;;6.10;99.90;;;;;;2064161;28;20277;-70
2022/09/29 00:59:53;;;;;;;9.77;7.70;;;6.10;99.90;;;;;;2065294;28;20476;-70
2022/09/29 01:00:54;;;;;;;9.30;7.53;;;6.10;99.90;;;;;;2065062;28;20052;-70
2022/09/29 01:01:55;;;;;;;8.80;7.32;;;6.00;99.90;;;;;;2064864;28;20053;-70
2022/09/29 01:03:08;;;;;;;10.32;7.10;;;6.10;99.90;;;;;;2064311;28;20038;-70
2022/09/29 01:04:15;;;;;;;8.95;7.63;;;6.10;99.90;;;;;;2064775;28;20038;-70
2022/09/29 01:05:20;;;;;;;10.23;7.53;;;6.00;99.90;;;;;;2051449;28;20027;-70
2022/09/29 01:06:30;;;;;;;8.93;7.05;;;6.00;99.90;;;;;;2048351;28;20031;-70
2022/09/29 01:07:32;;;;;;;9.35;7.35;;;6.00;99.90;;;;;;2056338;28;20436;-70
2022/09/29 01:08:39;;;;;;;9.73;7.60;;;6.00;99.90;;;;;;2047660;29;20028;-70
2022/09/29 01:09:42;;;;;;;9.15;7.40;;;6.00;99.90;;;;;;2047891;29;20668;-70
2022/09/29 01:10:44;;;;;;;9.48;7.57;;;6.00;99.90;;;;;;2047955;28;20027;-70
2022/09/29 01:11:45;;;;;;;9.43;7.38;;;6.00;99.90;;;;;;2056003;28;20031;-70
2022/09/29 01:12:48;;;;;;;9.43;7.38;;;6.00;99.90;;;;;;2056753;28;20090;-70
2022/09/29 01:13:50;;;;;;;9.20;7.35;;;6.00;99.90;;;;;;2062667;28;20022;-70
2022/09/29 01:14:53;;;;;;;9.68;7.70;;;6.00;99.90;;;;;;2047601;29;20392;-71
2022/09/29 01:15:54;;;;;;;9.55;7.32;;;5.90;99.90;;;;;;2047347;28;20477;-70
2022/09/29 01:16:55;;;;;;;7.70;6.50;;;6.00;99.90;;;;;;2055637;28;20041;-70
2022/09/29 01:17:55;;;;;;;10.02;7.00;;;5.90;99.90;;;;;;2055737;28;20113;-70
2022/09/29 01:18:58;;;;;;;9.15;7.10;;;5.90;99.90;;;;;;2047466;29;20405;-70
2022/09/29 01:20:21;;;;;;;9.60;7.00;;;6.00;99.90;;;;;;2056115;28;20074;-70
2022/09/29 01:21:49;;;;;;;8.75;6.95;;;6.00;99.90;;;;;;2047558;29;20043;-70
2022/09/29 01:23:34;;;;;;;9.70;7.43;;;5.90;99.90;;;;;;2051190;28;20070;-70
2022/09/29 01:25:05;;;;;;;9.85;7.30;;;5.90;99.90;;;;;;2056163;28;20046;-70
2022/09/29 01:26:24;;;;;;;10.70;7.28;;;5.90;99.90;;;;;;2056229;28;20027;-70
2022/09/29 01:27:32;;;;;;;10.85;7.18;;;5.90;99.90;;;;;;2056326;28;20039;-70
2022/09/29 01:28:52;;;;;;;9.52;7.18;;;5.90;99.90;;;;;;2055909;28;20034;-70
2022/09/29 01:30:17;;;;;;;9.75;7.10;;;5.90;99.90;;;;;;2056354;28;20030;-70
2022/09/29 01:31:43;;;;;;;8.65;6.85;;;5.90;99.90;;;;;;2056152;28;20074;-70
2022/09/29 01:33:09;;;;;;;8.63;6.93;;;5.90;99.90;;;;;;2056346;28;20030;-70
2022/09/29 01:34:35;;;;;;;10.82;7.53;;;5.90;99.90;;;;;;2047854;29;20035;-71
2022/09/29 01:36:02;;;;;;;9.55;7.50;;;5.90;99.90;;;;;;2051009;28;20075;-71
2022/09/29 01:37:27;;;;;;;10.73;7.30;;;5.80;99.90;;;;;;2052079;28;20615;-71
2022/09/29 01:38:38;;;;;;;9.40;7.00;;;5.80;99.90;;;;;;2050955;28;20042;-72
2022/09/29 01:39:56;;;;;;;9.32;7.20;;;5.80;99.90;;;;;;2047811;29;20498;-71
2022/09/29 01:41:05;;;;;;;9.40;7.15;;;5.80;99.90;;;;;;2057588;28;20067;-71
2022/09/29 01:42:14;;;;;;;9.52;7.65;;;5.80;99.90;;;;;;2054683;28;20031;-71
2022/09/29 01:43:22;;;;;;;9.73;7.10;;;5.80;99.90;;;;;;2049168;28;20035;-71
2022/09/29 01:44:27;;;;;;;9.25;7.03;;;5.80;99.90;;;;;;2047768;29;20321;-70
2022/09/29 01:45:33;;;;;;;9.23;7.47;;;5.80;99.90;;;;;;2056035;28;20449;-71
2022/09/29 01:46:41;;;;;;;10.15;7.50;;;5.80;99.90;;;;;;2062593;28;20050;-71
2022/09/29 01:47:47;;;;;;;10.02;7.70;;;5.80;99.90;;;;;;2047884;29;20042;-71
2022/09/29 01:48:52;;;;;;;9.93;7.72;;;5.90;99.90;;;;;;2047718;29;20051;-71
2022/09/29 01:49:59;;;;;;;9.20;7.35;;;5.90;99.90;;;;;;2048063;29;20051;-71
2022/09/29 01:51:07;;;;;;;10.10;7.32;;;5.90;99.90;;;;;;2048700;28;20035;-72
2022/09/29 01:52:18;;;;;;;10.02;7.60;;;5.80;99.90;;;;;;2047761;29;20053;-71
2022/09/29 01:53:25;;;;;;;9.77;7.40;;;5.80;99.90;;;;;;2049187;28;20028;-71
2022/09/29 01:54:42;;;;;;;11.23;7.57;;;5.80;99.90;;;;;;2056427;28;20026;-72
2022/09/29 01:55:49;;;;;;;11.73;7.80;;;5.80;99.90;;;;;;2055825;28;20125;-71
2022/09/29 01:56:55;;;;;;;9.05;7.35;;;5.80;99.90;;;;;;2050384;29;20027;-71
2022/09/29 01:58:06;;;;;;;9.48;7.18;;;5.80;99.90;;;;;;2042747;29;20038;-71
2022/09/29 01:59:23;;;;;;;11.82;7.32;;;5.80;99.90;;;;;;2045731;28;20032;-72
2022/09/29 02:00:24;;;;;;;8.75;7.00;;;5.80;99.90;;;;;;2056652;28;20041;-70
2022/09/29 02:01:30;;;;;;;8.77;7.05;;;5.80;99.90;;;;;;2056054;28;20057;-71
2022/09/29 02:02:38;;;;;;;8.82;7.05;;;5.80;99.90;;;;;;2047572;29;20453;-70
2022/09/29 02:03:50;;;;;;;9.05;7.20;;;5.70;99.90;;;;;;2055620;28;20627;-71
2022/09/29 02:05:00;;;;;;;9.40;7.20;;;5.70;99.90;;;;;;2047877;28;20027;-71
2022/09/29 02:06:06;;;;;;;9.43;6.75;;;5.70;99.90;;;;;;2041403;29;20036;-71
2022/09/29 02:07:13;;;;;;;11.38;7.35;;;5.70;99.90;;;;;;2047947;29;20054;-70
2022/09/29 02:08:31;;;;;;;9.40;7.18;;;5.70;99.90;;;;;;2048595;28;20011;-70
2022/09/29 02:09:37;;;;;;;9.73;7.35;;;5.70;99.90;;;;;;2056401;28;20572;-70
2022/09/29 02:10:59;;;;;;;9.40;7.15;;;5.60;99.90;;;;;;2056387;28;20037;-69
2022/09/29 02:12:02;;;;;;;9.20;6.95;;;5.60;99.90;;;;;;2047549;29;20667;-70
2022/09/29 02:13:06;;;;;;;7.88;6.57;;;5.60;99.90;;;;;;2048052;28;20501;-70
2022/09/29 02:14:15;;;;;;;10.30;6.97;;;5.60;99.90;;;;;;2039202;29;20027;-69
2022/09/29 02:15:25;;;;;;;8.23;6.45;;;5.60;99.90;;;;;;2042015;28;20053;-70
2022/09/29 02:16:30;;;;;;;8.60;7.03;;;5.60;99.90;;;;;;2047690;29;21519;-69
2022/09/29 02:17:34;;;;;;;8.90;7.00;;;5.60;99.90;;;;;;2055648;28;20595;-71
2022/09/29 02:18:49;;;;;;;10.05;6.93;;;5.60;99.90;;;;;;2047481;29;20034;-70
2022/09/29 02:19:51;;;;;;;9.27;6.60;;;5.60;99.90;;;;;;2049344;28;20023;-70
2022/09/29 02:20:52;;;;;;;7.95;6.57;;;5.60;99.90;;;;;;2056165;28;20026;-70
2022/09/29 02:21:53;;;;;;;7.72;6.43;;;5.60;99.90;;;;;;2056304;28;20064;-70
2022/09/29 02:22:54;;;;;;;8.23;6.90;;;5.60;99.90;;;;;;2047646;28;20038;-71
2022/09/29 02:23:56;;;;;;;7.18;6.22;;;5.60;99.90;;;;;;2039777;29;20035;-70
2022/09/29 02:24:58;;;;;;;7.40;6.00;;;5.60;99.90;;;;;;2047694;28;20106;-70
2022/09/29 02:26:00;;;;;;;7.03;6.20;;;5.60;99.90;;;;;;2047629;29;20043;-70
2022/09/29 02:27:01;;;;;;;8.80;6.70;;;5.60;99.90;;;;;;2047447;28;20038;-70
2022/09/29 02:28:03;;;;;;;8.13;6.32;;;5.50;99.90;;;;;;2056463;28;20033;-70
2022/09/29 02:29:05;;;;;;;7.57;6.60;;;5.50;99.90;;;;;;2047310;28;20035;-71
2022/09/29 02:30:06;;;;;;;9.00;6.40;;;5.50;99.90;;;;;;2047815;28;20028;-71
2022/09/29 02:31:07;;;;;;;8.82;6.97;;;5.50;99.90;;;;;;2055360;28;20042;-70
2022/09/29 02:32:09;;;;;;;7.03;5.93;;;5.50;99.90;;;;;;2047354;29;20035;-71
2022/09/29 02:33:23;;;;;;;8.02;6.30;;;5.50;99.90;;;;;;2047685;28;20127;-70
2022/09/29 02:34:24;;;;;;;8.35;6.25;;;5.50;99.90;;;;;;2056079;28;20158;-70
2022/09/29 02:35:42;;;;;;;8.52;6.80;;;5.50;99.90;;;;;;2047671;29;20433;-71
2022/09/29 02:37:03;;;;;;;8.45;6.35;;;5.50;99.90;;;;;;2057334;28;20041;-70
2022/09/29 02:38:11;;;;;;;9.38;6.50;;;5.40;99.90;;;;;;2052792;28;20035;-71
2022/09/29 02:39:23;;;;;;;7.97;6.38;;;5.40;99.90;;;;;;2047319;29;20028;-70
2022/09/29 02:40:36;;;;;;;9.43;6.13;;;5.40;99.90;;;;;;2041616;29;20028;-71
2022/09/29 02:42:09;;;;;;;8.55;6.35;;;5.40;99.90;;;;;;2048940;28;20023;-69
2022/09/29 02:43:43;;;;;;;7.93;6.30;;;5.40;99.90;;;;;;2049037;28;20122;-68
2022/09/29 02:45:08;;;;;;;10.88;7.00;;;5.40;99.90;;;;;;2055215;28;20030;-69
2022/09/29 02:46:42;;;;;;;10.68;7.28;;;5.40;99.90;;;;;;2055538;28;20039;-69
2022/09/29 02:48:40;;;;;;;11.77;7.68;;;5.40;99.90;;;;;;2055957;28;20493;-69
2022/09/29 02:50:01;;;;;;;10.90;7.70;;;5.50;99.90;;;;;;2038884;29;20120;-69
2022/09/29 02:51:25;;;;;;;10.52;7.93;;;5.50;99.90;;;;;;2050078;28;20035;-69
2022/09/29 02:53:11;;;;;;;11.05;7.40;;;5.50;99.90;;;;;;2056047;28;20073;-69
2022/09/29 02:54:36;;;;;;;10.02;7.13;;;5.50;99.90;;;;;;2038479;28;20051;-69
2022/09/29 02:55:56;;;;;;;10.88;7.20;;;5.60;99.90;;;;;;2050964;28;20038;-69
2022/09/29 02:57:18;;;;;;;10.43;7.55;;;5.60;99.90;;;;;;2055887;28;20038;-69
2022/09/29 02:58:52;;;;;;;10.95;7.50;;;5.70;99.90;;;;;;2055094;28;20015;-69
2022/09/29 03:00:12;;;;;;;10.68;7.75;;;5.70;99.90;;;;;;2051628;28;20469;-69
2022/09/29 03:01:15;;;;;;;11.70;7.63;;;5.70;99.90;;;;;;2039180;29;20094;-69
2022/09/29 03:02:23;;;;;;;9.82;7.30;;;5.80;99.90;;;;;;2039915;28;20027;-69
2022/09/29 03:03:23;;;;;;;11.15;7.35;;;5.80;99.90;;;;;;2047465;29;20035;-69
2022/09/29 03:04:26;;;;;;;9.10;6.80;;;5.90;99.90;;;;;;2047318;29;20115;-69
2022/09/29 03:05:26;;;;;;;8.45;6.55;;;5.90;99.90;;;;;;2056025;28;20037;-69
2022/09/29 03:06:27;;;;;;;8.43;6.75;;;5.90;99.90;;;;;;2055933;28;20110;-69
2022/09/29 03:07:28;;;;;;;9.38;7.20;;;6.00;99.90;;;;;;2055882;28;20068;-69
2022/09/29 03:08:28;;;;;;;10.02;7.35;;;6.00;99.90;;;;;;2047064;29;20027;-70
2022/09/29 03:09:29;;;;;;;10.57;7.55;;;6.00;99.90;;;;;;2047195;29;20119;-71
2022/09/29 03:10:30;;;;;;;9.85;7.40;;;6.00;99.90;;;;;;2039115;29;20031;-71
2022/09/29 03:11:30;;;;;;;10.35;7.57;;;6.00;99.90;;;;;;2039133;29;20524;-70
2022/09/29 03:12:31;;;;;;;10.93;7.38;;;6.00;99.90;;;;;;2047025;29;20023;-70
2022/09/29 03:13:31;;;;;;;13.48;8.70;;;6.10;99.90;;;;;;2047138;29;20161;-71
2022/09/29 03:14:32;;;;;;;15.75;8.70;;;6.10;99.90;;;;;;2047365;29;20738;-70
2022/09/29 03:15:33;;;;;;;16.63;10.27;;;6.10;99.90;;;;;;2047205;29;20058;-71
2022/09/29 03:16:35;;;;;;;14.65;9.40;;;6.10;99.90;;;;;;2039174;29;20036;-71
2022/09/29 03:17:36;;;;;;;12.75;8.13;;;6.10;99.90;;;;;;2047744;28;20417;-70
2022/09/29 03:18:36;;;;;;;12.07;8.00;;;6.10;99.90;;;;;;2047132;29;20035;-70
2022/09/29 03:19:37;;;;;;;9.60;6.97;;;6.10;99.90;;;;;;2055079;28;20117;-71
2022/09/29 03:20:38;;;;;;;9.20;6.97;;;6.10;99.90;;;;;;2047292;29;20453;-69
2022/09/29 03:21:39;;;;;;;8.05;6.40;;;6.10;99.90;;;;;;2039258;29;20135;-69
2022/09/29 03:22:39;;;;;;;7.68;6.25;;;6.20;99.90;;;;;;2039547;29;20060;-70
2022/09/29 03:23:40;;;;;;;7.47;6.30;;;6.20;99.90;;;;;;2039504;29;20031;-71
2022/09/29 03:24:41;;;;;;;7.80;6.13;;;6.20;99.90;;;;;;2039590;29;20656;-70
2022/09/29 03:25:42;;;;;;;8.20;6.50;;;6.20;99.90;;;;;;2048933;28;20532;-70
2022/09/29 03:26:42;;;;;;;10.05;6.70;;;6.20;99.90;;;;;;2041024;29;20023;-70
2022/09/29 03:27:43;;;;;;;10.82;7.68;;;6.20;99.90;;;;;;2041005;29;20063;-70
2022/09/29 03:28:44;;;;;;;12.85;7.53;;;6.20;99.90;;;;;;2049477;29;20027;-70
2022/09/29 03:29:44;;;;;;;10.38;7.22;;;6.20;99.90;;;;;;2049632;29;20046;-69
2022/09/29 03:30:45;;;;;;;11.00;7.40;;;6.20;99.90;;;;;;2040834;29;20653;-69
2022/09/29 03:31:45;;;;;;;13.15;8.75;;;6.30;99.90;;;;;;2041019;29;20028;-70
2022/09/29 03:32:46;;;;;;;14.25;8.82;;;6.20;99.90;;;;;;2049690;29;20026;-69
2022/09/29 03:33:47;;;;;;;13.43;8.65;;;6.30;99.90;;;;;;2040963;29;20039;-70
2022/09/29 03:34:47;;;;;;;13.18;8.60;;;6.20;99.90;;;;;;2049203;29;20074;-69
2022/09/29 03:35:48;;;;;;;12.68;8.10;;;6.20;99.90;;;;;;2048887;29;20042;-69
2022/09/29 03:36:48;;;;;;;13.30;7.72;;;6.20;99.90;;;;;;2040953;29;20028;-69
2022/09/29 03:37:49;;;;;;;11.05;7.68;;;6.30;99.90;;;;;;2049625;29;20039;-69
2022/09/29 03:38:50;;;;;;;10.88;7.53;;;6.20;99.90;;;;;;2040802;29;20064;-69
2022/09/29 03:39:50;;;;;;;13.05;7.20;;;6.20;99.90;;;;;;2041175;29;20043;-70
2022/09/29 03:40:51;;;;;;;9.98;7.13;;;6.20;99.90;;;;;;2056624;28;20035;-69
2022/09/29 03:41:52;;;;;;;10.32;7.20;;;6.20;99.90;;;;;;2049042;29;20023;-69
2022/09/29 03:42:52;;;;;;;10.02;7.38;;;6.20;99.90;;;;;;2041018;29;20051;-69
2022/09/29 03:43:53;;;;;;;9.27;6.55;;;6.20;99.90;;;;;;2049636;29;20470;-69
2022/09/29 03:44:54;;;;;;;9.07;6.75;;;6.20;99.90;;;;;;2049502;28;20027;-69
2022/09/29 03:45:56;;;;;;;9.20;6.78;;;6.30;99.90;;;;;;2049401;29;20107;-69
2022/09/29 03:46:57;;;;;;;9.38;6.85;;;6.30;99.90;;;;;;2049341;28;20597;-69
2022/09/29 03:47:58;;;;;;;9.25;7.25;;;6.30;99.90;;;;;;2057172;28;20075;-69
2022/09/29 03:48:58;;;;;;;9.90;7.13;;;6.30;99.90;;;;;;2049188;29;20061;-69
2022/09/29 03:49:59;;;;;;;8.13;6.70;;;6.30;99.90;;;;;;2041026;29;20058;-69
2022/09/29 03:51:00;;;;;;;9.32;6.75;;;6.30;99.90;;;;;;2049156;29;20066;-69
2022/09/29 03:52:01;;;;;;;8.48;6.75;;;6.40;99.90;;;;;;2049363;28;20024;-69
2022/09/29 03:53:01;;;;;;;8.20;6.35;;;6.40;99.90;;;;;;2049699;29;20023;-69
2022/09/29 03:54:02;;;;;;;9.35;6.88;;;6.40;99.90;;;;;;2053813;28;20035;-69
2022/09/29 03:55:03;;;;;;;7.72;6.05;;;6.40;99.90;;;;;;2057522;28;20101;-69
2022/09/29 03:56:04;;;;;;;7.40;6.15;;;6.40;99.90;;;;;;2049021;29;20046;-70
2022/09/29 03:57:05;;;;;;;7.63;6.43;;;6.40;99.90;;;;;;2048706;28;20032;-69
2022/09/29 03:58:06;;;;;;;7.97;6.43;;;6.50;99.90;;;;;;2041137;29;20079;-70
2022/09/29 03:59:09;;;;;;;9.25;6.32;;;6.50;99.90;;;;;;2048881;28;20055;-69
2022/09/29 04:00:10;;;;;;;7.45;6.32;;;6.50;99.90;;;;;;2065086;28;20058;-70
2022/09/29 04:01:11;;;;;;;9.77;6.63;;;6.50;99.90;;;;;;2049763;29;20132;-69
2022/09/29 04:02:12;;;;;;;7.43;6.55;;;6.50;99.90;;;;;;2049894;29;20129;-72
2022/09/29 04:03:13;;;;;;;8.60;6.30;;;6.50;99.90;;;;;;2040905;29;20059;-72
2022/09/29 04:04:14;;;;;;;9.50;6.55;;;6.50;99.90;;;;;;2056584;28;20483;-72
2022/09/29 04:05:16;;;;;;;7.13;6.30;;;6.50;99.90;;;;;;2064785;28;20026;-72
2022/09/29 04:06:16;;;;;;;7.10;6.28;;;6.50;99.90;;;;;;2048604;29;20477;-72
2022/09/29 04:07:17;;;;;;;7.88;6.47;;;6.50;99.90;;;;;;2048796;29;20042;-71
2022/09/29 04:08:17;;;;;;;6.75;6.05;;;6.50;99.90;;;;;;2057465;28;20204;-72
2022/09/29 04:09:18;;;;;;;8.07;6.60;;;6.40;99.90;;;;;;2048832;29;20024;-72
2022/09/29 04:10:19;;;;;;;8.18;6.72;;;6.40;99.90;;;;;;2056750;28;20110;-72
2022/09/29 04:11:19;;;;;;;8.23;6.38;;;6.40;99.90;;;;;;2056665;28;20031;-71
2022/09/29 04:12:20;;;;;;;8.45;6.45;;;6.30;99.90;;;;;;2048432;29;20056;-72
2022/09/29 04:13:20;;;;;;;9.68;6.65;;;6.30;99.90;;;;;;2056706;28;20107;-71
2022/09/29 04:14:21;;;;;;;9.50;6.78;;;6.30;99.90;;;;;;2064708;28;20018;-71
2022/09/29 04:15:22;;;;;;;7.45;6.03;;;6.30;99.90;;;;;;2057471;28;20031;-72
2022/09/29 04:16:22;;;;;;;8.73;6.45;;;6.20;99.90;;;;;;2048952;29;20040;-68
2022/09/29 04:17:23;;;;;;;8.07;6.90;;;6.20;99.90;;;;;;2049612;29;20023;-69
2022/09/29 04:18:24;;;;;;;7.07;6.28;;;6.20;99.90;;;;;;2050049;29;20023;-68
2022/09/29 04:19:24;;;;;;;7.35;5.90;;;6.20;99.90;;;;;;2049603;29;20059;-68
2022/09/29 04:20:25;;;;;;;7.75;6.22;;;6.20;99.90;;;;;;2057599;28;20354;-69
2022/09/29 04:21:26;;;;;;;8.43;6.07;;;6.20;99.90;;;;;;2048981;29;20039;-68
2022/09/29 04:22:27;;;;;;;8.98;6.47;;;6.20;99.90;;;;;;2049370;29;20030;-68
2022/09/29 04:23:29;;;;;;;8.55;7.10;;;6.30;99.90;;;;;;2049440;29;20521;-68
2022/09/29 04:24:29;;;;;;;8.23;6.60;;;6.40;99.90;;;;;;2049949;28;20028;-69
2022/09/29 04:25:30;;;;;;;8.10;6.35;;;6.50;99.90;;;;;;2058451;28;20442;-69
2022/09/29 04:26:31;;;;;;;7.57;6.40;;;6.50;99.90;;;;;;2049908;29;20638;-68
2022/09/29 04:27:31;;;;;;;9.40;6.60;;;6.50;99.90;;;;;;2049795;29;20130;-69
2022/09/29 04:28:33;;;;;;;8.80;6.57;;;6.50;99.90;;;;;;2049544;29;20043;-68
2022/09/29 04:29:34;;;;;;;8.90;6.75;;;6.50;99.90;;;;;;2050635;28;20117;-68
2022/09/29 04:30:34;;;;;;;9.15;7.03;;;6.50;99.90;;;;;;2058833;28;20023;-69
2022/09/29 04:31:38;;;;;;;9.88;6.78;;;6.60;99.90;;;;;;2049416;29;20033;-68
2022/09/29 04:32:41;;;;;;;8.43;6.60;;;6.60;99.90;;;;;;2049949;28;20130;-69
2022/09/29 04:33:44;;;;;;;10.05;7.13;;;6.60;99.90;;;;;;2049483;28;20027;-68
2022/09/29 04:34:45;;;;;;;9.90;7.13;;;6.60;99.90;;;;;;2056458;28;20524;-69
2022/09/29 04:35:45;;;;;;;8.90;7.00;;;6.70;99.90;;;;;;2056826;28;20066;-69
2022/09/29 04:36:46;;;;;;;8.48;7.00;;;6.70;99.90;;;;;;2057444;28;20041;-69
2022/09/29 04:37:47;;;;;;;8.52;6.97;;;6.70;99.90;;;;;;2065703;28;20030;-69
2022/09/29 04:38:49;;;;;;;9.98;7.07;;;6.70;99.90;;;;;;2058731;28;20027;-67
2022/09/29 04:39:52;;;;;;;9.55;7.47;;;6.80;99.90;;;;;;2059150;28;20162;-69
2022/09/29 04:40:52;;;;;;;9.50;7.32;;;6.80;99.90;;;;;;2050841;29;20506;-69
2022/09/29 04:41:53;;;;;;;9.30;6.82;;;6.80;99.90;;;;;;2042940;29;20039;-68
2022/09/29 04:42:54;;;;;;;10.38;7.20;;;6.80;99.90;;;;;;2043314;29;20079;-69
2022/09/29 04:43:57;;;;;;;8.27;6.85;;;6.80;99.90;;;;;;2051748;29;20118;-68
2022/09/29 04:44:58;;;;;;;9.00;6.53;;;6.80;99.90;;;;;;2051190;28;20059;-69
2022/09/29 04:46:06;;;;;;;8.35;6.45;;;6.80;99.90;;;;;;2059406;28;20046;-69
2022/09/29 04:47:06;;;;;;;11.45;6.93;;;6.80;99.90;;;;;;2059036;28;20031;-68
2022/09/29 04:48:07;;;;;;;8.95;6.45;;;6.80;99.90;;;;;;2059711;28;20083;-68
2022/09/29 04:49:08;;;;;;;7.78;6.38;;;6.80;99.90;;;;;;2051121;29;20620;-69
2022/09/29 04:50:09;;;;;;;7.75;6.38;;;6.80;99.90;;;;;;2050926;28;20649;-69
2022/09/29 04:51:09;;;;;;;8.27;6.22;;;6.80;99.90;;;;;;2041281;29;20031;-68
2022/09/29 04:52:14;;;;;;;8.07;5.82;;;6.80;99.90;;;;;;2049260;28;20015;-69
2022/09/29 04:53:16;;;;;;;9.38;6.68;;;6.80;99.90;;;;;;2049462;29;20055;-69
2022/09/29 04:54:17;;;;;;;7.30;6.25;;;6.80;99.90;;;;;;2049131;29;20397;-70
2022/09/29 04:55:17;;;;;;;8.60;6.47;;;6.80;99.90;;;;;;2048522;29;20023;-69
2022/09/29 04:56:18;;;;;;;8.23;6.60;;;6.80;99.90;;;;;;2056297;28;20113;-69
2022/09/29 04:57:21;;;;;;;8.25;6.25;;;6.80;99.90;;;;;;2056323;28;20066;-69
2022/09/29 04:58:28;;;;;;;9.13;7.07;;;6.90;99.90;;;;;;2048694;28;20118;-70
2022/09/29 04:59:34;;;;;;;14.23;10.05;;;6.90;99.90;;;;;;2056864;28;20092;-71
2022/09/29 05:00:35;;;;;;;15.88;11.20;;;6.90;99.90;;;;;;2056929;28;20045;-70
2022/09/29 05:01:39;;;;;;;16.13;12.70;;;6.90;99.90;;;;;;2048128;29;20051;-68
2022/09/29 05:02:41;;;;;;;17.65;13.85;;;6.90;99.90;;;;;;2040924;29;20027;-71
2022/09/29 05:03:42;;;;;;;16.50;13.45;;;6.90;99.90;;;;;;2048396;28;20037;-68
2022/09/29 05:04:43;;;;;;;16.08;12.57;;;6.90;99.90;;;;;;2048298;29;20035;-68
2022/09/29 05:05:46;;;;;;;17.73;12.85;;;6.90;99.90;;;;;;2048212;28;20482;-69
2022/09/29 05:06:50;;;;;;;20.83;13.85;;;7.00;99.90;;;;;;2056844;28;20081;-69
2022/09/29 05:07:51;;;;;;;24.05;15.85;;;7.00;99.90;;;;;;2040063;29;20123;-69
2022/09/29 05:08:51;;;;;;;23.13;15.32;;;6.90;99.90;;;;;;2039995;29;20667;-71
2022/09/29 05:09:52;;;;;;;20.77;14.38;;;7.00;99.90;;;;;;2056725;28;20492;-69
2022/09/29 05:10:53;;;;;;;20.30;13.02;;;7.00;99.90;;;;;;2039828;29;20051;-69
2022/09/29 05:11:54;;;;;;;15.00;11.30;;;7.00;99.90;;;;;;2040238;29;20382;-70
2022/09/29 05:12:55;;;;;;;14.23;10.88;;;7.00;99.90;;;;;;2056841;28;20027;-71
2022/09/29 05:13:56;;;;;;;13.65;9.32;;;7.00;99.90;;;;;;2047914;29;20027;-68
2022/09/29 05:14:57;;;;;;;13.23;9.52;;;7.00;99.90;;;;;;2047822;28;20110;-69
2022/09/29 05:16:05;;;;;;;13.10;8.73;;;7.00;99.90;;;;;;2056728;28;20108;-72
2022/09/29 05:17:05;;;;;;;11.00;8.55;;;7.00;99.90;;;;;;2048390;29;20052;-69
2022/09/29 05:18:06;;;;;;;11.27;8.13;;;7.00;99.90;;;;;;2040426;29;20028;-69
2022/09/29 05:19:07;;;;;;;11.30;8.40;;;7.00;99.90;;;;;;2047883;28;20036;-69
2022/09/29 05:20:08;;;;;;;10.02;7.90;;;7.00;99.90;;;;;;2039895;29;20059;-68
2022/09/29 05:21:09;;;;;;;10.10;7.80;;;7.10;99.90;;;;;;2039975;28;20055;-69
2022/09/29 05:22:10;;;;;;;8.73;7.32;;;7.10;99.90;;;;;;2055791;28;20393;-69
2022/09/29 05:23:10;;;;;;;9.88;7.57;;;7.10;99.90;;;;;;2056061;28;20027;-72
2022/09/29 05:24:14;;;;;;;9.32;7.55;;;7.10;99.90;;;;;;2048535;28;20027;-71
2022/09/29 05:25:15;;;;;;;9.15;7.40;;;7.10;99.90;;;;;;2048651;29;20039;-70
2022/09/29 05:26:18;;;;;;;8.73;7.20;;;7.10;99.90;;;;;;2047935;28;20109;-70
2022/09/29 05:27:20;;;;;;;8.85;7.47;;;7.10;99.90;;;;;;2048263;28;20035;-69
2022/09/29 05:28:21;;;;;;;9.30;7.32;;;7.10;99.90;;;;;;2047929;29;20548;-70
2022/09/29 05:29:22;;;;;;;8.95;7.43;;;7.10;99.90;;;;;;2047709;29;20062;-70
2022/09/29 05:30:22;;;;;;;10.68;8.48;;;7.10;99.90;;;;;;2047970;29;20058;-70
2022/09/29 05:31:23;;;;;;;9.38;7.45;;;7.10;99.90;;;;;;2048558;29;20158;-70
2022/09/29 05:32:24;;;;;;;10.07;8.40;;;7.10;99.90;;;;;;2048563;29;20019;-69
2022/09/29 05:33:24;;;;;;;11.73;8.52;;;7.10;99.90;;;;;;2048529;29;20524;-70
2022/09/29 05:34:25;;;;;;;10.57;8.35;;;7.10;99.90;;;;;;2048435;29;20062;-69
2022/09/29 05:35:28;;;;;;;10.18;8.55;;;7.10;99.90;;;;;;2048362;29;20031;-68
2022/09/29 05:36:28;;;;;;;10.48;8.57;;;7.10;99.90;;;;;;2056155;28;20011;-69
2022/09/29 05:37:29;;;;;;;10.43;7.82;;;7.10;99.90;;;;;;2056575;28;20034;-69
2022/09/29 05:38:30;;;;;;;12.40;8.20;;;7.20;99.90;;;;;;2040125;29;20020;-69
2022/09/29 05:39:52;;;;;;;12.57;9.15;;;7.10;99.90;;;;;;2050917;28;20027;-68
2022/09/29 05:40:53;;;;;;;11.73;8.65;;;7.20;99.90;;;;;;2048352;29;20122;-68
2022/09/29 05:41:53;;;;;;;13.63;8.50;;;7.20;99.90;;;;;;2040875;29;20593;-71